Time;durP1;ratioP1;P1;durP2;ratioP2;P2;SDS_P1;SDS_P2;PMS_P1;PMS_P2;Temp;Humidity;BMP_temperature;BMP_pressure;BME280_temperature;BME280_humidity;BME280_pressure;Samples;Min_cycle;Max_cycle;Signal;HPM_P1;HPM_P2
2022/04/08 00:02:04;;;;;;;;;50.25;39.50;15.00;56.60;;;;;;4938019;29;8857;-56
2022/04/08 00:04:32;;;;;;;;;46.75;40.00;14.80;56.60;;;;;;4938020;29;8856;-55
2022/04/08 00:06:58;;;;;;;;;50.50;41.00;14.80;56.60;;;;;;4937553;29;8782;-58
2022/04/08 00:09:24;;;;;;;;;45.50;39.25;15.00;56.20;;;;;;4942105;29;8819;-56
2022/04/08 00:11:50;;;;;;;;;41.75;37.50;14.80;56.60;;;;;;4951466;29;8857;-57
2022/04/08 00:14:18;;;;;;;;;38.00;34.75;14.80;56.80;;;;;;4937596;29;8889;-57
2022/04/08 00:16:45;;;;;;;;;32.25;28.50;14.70;57.10;;;;;;4937824;29;8795;-58
2022/04/08 00:19:11;;;;;;;;;42.00;36.75;14.80;56.60;;;;;;4937499;29;8811;-58
2022/04/08 00:21:36;;;;;;;;;37.75;36.25;14.80;56.50;;;;;;4937501;29;8798;-59
2022/04/08 00:24:03;;;;;;;;;43.50;37.50;14.60;56.70;;;;;;4937343;29;8806;-59
2022/04/08 00:26:29;;;;;;;;;39.25;36.00;14.60;57.00;;;;;;4937612;29;8774;-55
2022/04/08 00:28:54;;;;;;;;;49.25;41.00;14.60;57.00;;;;;;4949325;28;8804;-56
2022/04/08 00:31:21;;;;;;;;;59.50;50.00;14.60;57.00;;;;;;4949326;29;8886;-57
2022/04/08 00:33:46;;;;;;;;;62.75;51.50;14.30;57.90;;;;;;4937212;29;8775;-56
2022/04/08 00:36:12;;;;;;;;;56.00;47.00;14.40;57.90;;;;;;4937199;29;8965;-57
2022/04/08 00:38:38;;;;;;;;;61.00;51.00;14.40;58.20;;;;;;4937653;29;8826;-57
2022/04/08 00:41:04;;;;;;;;;58.75;48.50;14.30;58.70;;;;;;4937168;29;8790;-57
2022/04/08 00:43:36;;;;;;;;;67.50;52.50;14.00;60.30;;;;;;4937346;29;8786;-58
2022/04/08 00:46:04;;;;;;;;;73.25;56.25;14.00;59.80;;;;;;4936115;29;8814;-57
2022/04/08 00:48:30;;;;;;;;;67.00;53.00;13.60;62.00;;;;;;4937347;29;8790;-55
2022/04/08 00:50:57;;;;;;;;;68.00;53.75;14.00;60.60;;;;;;4936958;29;8849;-58
2022/04/08 00:53:24;;;;;;;;;68.75;55.50;13.90;60.50;;;;;;4937291;29;8794;-57
2022/04/08 00:55:50;;;;;;;;;69.25;53.00;14.10;59.80;;;;;;4937079;29;8793;-58
2022/04/08 00:58:16;;;;;;;;;67.00;53.75;14.30;58.70;;;;;;4936241;29;8787;-57
2022/04/08 01:00:42;;;;;;;;;61.25;50.25;14.40;58.70;;;;;;4937012;29;8818;-58
2022/04/08 01:03:08;;;;;;;;;66.75;53.25;14.40;58.10;;;;;;4937876;29;8803;-57
2022/04/08 01:05:35;;;;;;;;;67.00;52.50;14.30;58.60;;;;;;4940946;29;8913;-58
2022/04/08 01:08:02;;;;;;;;;70.50;54.00;14.30;58.70;;;;;;4941020;29;8811;-58
2022/04/08 01:10:28;;;;;;;;;63.75;53.00;14.20;58.60;;;;;;4940798;29;8801;-58
2022/04/08 01:12:54;;;;;;;;;68.25;53.75;14.20;58.80;;;;;;4940857;29;8778;-58
2022/04/08 01:15:22;;;;;;;;;58.75;46.00;14.20;59.10;;;;;;4941062;29;8926;-58
2022/04/08 01:17:49;;;;;;;;;59.75;47.75;14.20;59.50;;;;;;4941045;29;8783;-57
2022/04/08 01:20:15;;;;;;;;;64.00;51.25;14.30;58.90;;;;;;4940840;29;8831;-58
2022/04/08 01:22:42;;;;;;;;;62.50;50.00;14.00;60.30;;;;;;4940650;29;8798;-57
2022/04/08 01:25:10;;;;;;;;;68.00;55.75;14.20;59.40;;;;;;4940899;29;9437;-56
2022/04/08 01:27:37;;;;;;;;;66.50;53.75;13.90;60.30;;;;;;4940836;29;8791;-58
2022/04/08 01:30:12;;;;;;;;;66.00;52.00;14.00;60.20;;;;;;4940499;29;8886;-56
2022/04/08 01:32:38;;;;;;;;;63.50;51.75;14.20;59.60;;;;;;4944466;28;9499;-57
2022/04/08 01:35:04;;;;;;;;;72.50;57.25;14.10;59.70;;;;;;4958294;28;8772;-55
2022/04/08 01:37:30;;;;;;;;;72.00;57.25;14.10;59.50;;;;;;4940583;29;8806;-56
2022/04/08 01:39:56;;;;;;;;;69.00;55.25;13.80;60.60;;;;;;4940225;29;8833;-54
2022/04/08 01:42:24;;;;;;;;;67.50;53.50;13.70;60.90;;;;;;4940286;29;8812;-56
2022/04/08 01:44:51;;;;;;;;;65.00;52.75;13.40;62.20;;;;;;4940485;29;8786;-57
2022/04/08 01:47:17;;;;;;;;;64.00;52.50;13.70;61.00;;;;;;4940185;29;9440;-56
2022/04/08 01:49:43;;;;;;;;;62.75;50.00;13.50;62.00;;;;;;4940141;29;8771;-56
2022/04/08 01:52:09;;;;;;;;;57.50;47.25;13.70;60.90;;;;;;4940024;29;8873;-56
2022/04/08 01:54:35;;;;;;;;;64.75;50.75;13.80;60.30;;;;;;4940335;29;8778;-55
2022/04/08 01:57:01;;;;;;;;;53.75;44.75;14.00;60.20;;;;;;4940259;29;8783;-56
2022/04/08 01:59:27;;;;;;;;;57.25;47.25;13.90;60.10;;;;;;4939979;29;8807;-56
2022/04/08 02:01:53;;;;;;;;;57.25;47.00;13.90;60.50;;;;;;4939983;29;8799;-55
2022/04/08 02:04:18;;;;;;;;;51.00;41.00;13.80;60.60;;;;;;4940141;29;8794;-57
2022/04/08 02:06:44;;;;;;;;;53.50;45.00;14.00;60.20;;;;;;4939931;29;8782;-56
2022/04/08 02:09:11;;;;;;;;;54.50;46.25;13.80;60.60;;;;;;4940049;29;8826;-55
2022/04/08 02:11:38;;;;;;;;;53.25;43.50;13.70;61.20;;;;;;4939750;29;8854;-56
2022/04/08 02:14:04;;;;;;;;;54.25;43.25;13.60;62.00;;;;;;4939676;29;8861;-57
2022/04/08 02:16:30;;;;;;;;;44.00;37.25;13.70;61.30;;;;;;4939963;29;9592;-55
2022/04/08 02:18:57;;;;;;;;;52.75;43.00;13.70;61.20;;;;;;4939526;29;8822;-56
2022/04/08 02:21:23;;;;;;;;;51.25;42.00;13.70;61.90;;;;;;4943699;28;8846;-53
2022/04/08 02:23:50;;;;;;;;;53.50;43.00;13.80;61.30;;;;;;4954029;28;8777;-55
2022/04/08 02:26:16;;;;;;;;;50.50;41.00;13.70;61.20;;;;;;4942004;28;8811;-57
2022/04/08 02:28:43;;;;;;;;;47.50;39.50;13.70;61.50;;;;;;4939670;29;8877;-56
2022/04/08 02:31:09;;;;;;;;;50.75;40.75;13.80;61.30;;;;;;4939462;29;8929;-56
2022/04/08 02:33:35;;;;;;;;;50.75;40.25;13.80;61.70;;;;;;4938422;29;8910;-56
2022/04/08 02:36:02;;;;;;;;;48.50;39.50;13.80;61.70;;;;;;4939610;29;8890;-57
2022/04/08 02:38:28;;;;;;;;;43.75;37.75;13.80;61.80;;;;;;4939574;29;8822;-58
2022/04/08 02:40:53;;;;;;;;;38.50;33.50;13.80;62.00;;;;;;4939201;29;8838;-58
2022/04/08 02:43:19;;;;;;;;;45.25;38.25;13.70;62.40;;;;;;4939230;29;8804;-59
2022/04/08 02:45:45;;;;;;;;;43.75;36.25;13.70;62.80;;;;;;4939449;29;8771;-58
2022/04/08 02:48:13;;;;;;;;;48.00;38.25;13.60;63.00;;;;;;4939374;29;8799;-58
2022/04/08 02:50:42;;;;;;;;;48.00;39.50;13.70;62.60;;;;;;4939099;29;8807;-59
2022/04/08 02:53:09;;;;;;;;;45.00;36.00;13.60;62.70;;;;;;4939333;29;8783;-55
2022/04/08 02:55:35;;;;;;;;;47.00;39.75;13.70;62.20;;;;;;4937934;29;8845;-56
2022/04/08 02:58:02;;;;;;;;;47.00;40.50;13.50;62.90;;;;;;4939217;29;8783;-59
2022/04/08 03:00:28;;;;;;;;;62.25;47.50;13.30;63.80;;;;;;4937808;29;9457;-54
2022/04/08 03:02:54;;;;;;;;;51.50;42.00;13.30;64.20;;;;;;4939086;29;8870;-59
2022/04/08 03:05:20;;;;;;;;;54.50;42.50;13.40;63.80;;;;;;4939072;29;8778;-58
2022/04/08 03:07:46;;;;;;;;;50.75;43.25;13.30;64.80;;;;;;4938792;29;8819;-58
2022/04/08 03:10:12;;;;;;;;;47.00;37.25;13.50;63.90;;;;;;4938972;29;8802;-55
2022/04/08 03:12:38;;;;;;;;;44.50;36.50;13.30;64.60;;;;;;4938703;29;8787;-56
2022/04/08 03:15:05;;;;;;;;;45.25;39.00;13.50;64.00;;;;;;4938908;29;8806;-58
2022/04/08 03:17:31;;;;;;;;;51.25;43.25;13.30;64.10;;;;;;4938779;29;9434;-58
2022/04/08 03:19:57;;;;;;;;;54.25;47.00;13.30;64.60;;;;;;4938409;29;8811;-58
2022/04/08 03:22:24;;;;;;;;;47.50;39.25;13.50;63.80;;;;;;4938458;29;8790;-58
2022/04/08 03:24:52;;;;;;;;;38.25;34.00;13.50;63.40;;;;;;4938534;29;8844;-59
2022/04/08 03:27:18;;;;;;;;;53.00;45.00;13.60;63.30;;;;;;4937679;29;8981;-56
2022/04/08 03:29:44;;;;;;;;;53.00;43.50;13.60;62.90;;;;;;4938569;29;8802;-58
2022/04/08 03:32:12;;;;;;;;;56.00;45.75;13.50;62.90;;;;;;4938475;29;8783;-55
2022/04/08 03:34:38;;;;;;;;;56.00;44.75;13.60;62.60;;;;;;4938512;29;8790;-58
2022/04/08 03:37:04;;;;;;;;;57.50;45.75;13.60;62.80;;;;;;4938294;29;8791;-57
2022/04/08 03:39:30;;;;;;;;;60.25;49.25;13.60;62.70;;;;;;4945561;28;8827;-57
2022/04/08 03:41:57;;;;;;;;;57.00;47.50;13.50;63.30;;;;;;4946451;28;8815;-57
2022/04/08 03:44:23;;;;;;;;;60.75;48.00;12.90;66.50;;;;;;4957491;28;8808;-58
2022/04/08 03:46:49;;;;;;;;;58.00;47.00;12.90;65.70;;;;;;4957189;28;8795;-56
2022/04/08 03:49:16;;;;;;;;;65.75;50.50;13.20;65.30;;;;;;4957240;28;8800;-58
2022/04/08 03:51:43;;;;;;;;;67.50;52.00;13.30;64.30;;;;;;4957021;28;8831;-59
2022/04/08 03:54:09;;;;;;;;;61.75;50.75;13.00;66.00;;;;;;4957309;28;8780;-58
2022/04/08 03:56:36;;;;;;;;;70.00;55.50;12.60;68.30;;;;;;4956968;28;8819;-57
2022/04/08 03:59:02;;;;;;;;;76.25;57.75;12.20;71.50;;;;;;4957128;28;8816;-55
2022/04/08 04:01:28;;;;;;;;;64.25;51.00;12.10;73.80;;;;;;4956977;28;8894;-57
2022/04/08 04:03:54;;;;;;;;;67.00;53.00;12.10;73.00;;;;;;4957131;28;8911;-57
2022/04/08 04:06:19;;;;;;;;;66.75;52.75;12.30;72.40;;;;;;4957087;28;8907;-58
2022/04/08 04:08:45;;;;;;;;;64.75;51.75;12.30;72.70;;;;;;4957112;28;8930;-56
2022/04/08 04:11:16;;;;;;;;;61.75;50.00;12.40;71.90;;;;;;4957017;28;8803;-59
2022/04/08 04:13:42;;;;;;;;;65.00;52.25;12.80;69.30;;;;;;4956652;28;8787;-58
2022/04/08 04:16:08;;;;;;;;;66.25;51.00;13.00;68.00;;;;;;4956846;28;8791;-58
2022/04/08 04:18:35;;;;;;;;;65.75;52.25;12.60;70.50;;;;;;4956510;28;8907;-57
2022/04/08 04:21:01;;;;;;;;;54.00;43.25;12.80;70.20;;;;;;4956782;28;9682;-57
2022/04/08 04:23:27;;;;;;;;;60.00;47.25;12.70;69.70;;;;;;4955996;28;8827;-56
2022/04/08 04:25:53;;;;;;;;;62.25;50.75;12.70;70.10;;;;;;4952613;28;8808;-55
2022/04/08 04:28:19;;;;;;;;;59.75;49.00;12.80;69.80;;;;;;4943942;28;8791;-54
2022/04/08 04:30:45;;;;;;;;;60.50;49.25;13.00;68.50;;;;;;4937279;29;9568;-55
2022/04/08 04:33:11;;;;;;;;;58.25;46.00;13.20;67.80;;;;;;4937500;29;8807;-58
2022/04/08 04:35:38;;;;;;;;;60.00;48.25;13.20;67.10;;;;;;4937256;29;8897;-56
2022/04/08 04:38:04;;;;;;;;;56.50;46.50;13.50;65.70;;;;;;4937190;28;8901;-57
2022/04/08 04:40:29;;;;;;;;;60.00;50.25;13.40;65.40;;;;;;4948217;28;8830;-56
2022/04/08 04:42:58;;;;;;;;;56.75;46.00;13.50;65.70;;;;;;4947820;29;8791;-55
2022/04/08 04:45:25;;;;;;;;;65.50;52.00;13.50;65.20;;;;;;4937403;29;8891;-57
2022/04/08 04:47:50;;;;;;;;;67.25;52.50;13.50;65.50;;;;;;4940894;28;8867;-58
2022/04/08 04:50:16;;;;;;;;;61.50;48.50;13.70;65.10;;;;;;4945018;29;8826;-61
2022/04/08 04:52:42;;;;;;;;;61.50;48.00;13.70;65.00;;;;;;4955331;28;8800;-59
2022/04/08 04:55:09;;;;;;;;;62.75;51.25;13.70;64.30;;;;;;4956451;28;9450;-65
2022/04/08 04:57:35;;;;;;;;;68.75;54.25;13.70;64.70;;;;;;4937232;29;8853;-57
2022/04/08 05:00:03;;;;;;;;;72.25;58.00;13.30;66.60;;;;;;4936941;29;8827;-61
2022/04/08 05:02:28;;;;;;;;;75.00;62.00;13.40;65.40;;;;;;4936903;29;8786;-60
2022/04/08 05:04:54;;;;;;;;;59.25;49.75;13.40;64.80;;;;;;4936686;29;8878;-59
2022/04/08 05:07:20;;;;;;;;;55.75;46.75;14.10;60.40;;;;;;4937032;29;8795;-59
2022/04/08 05:09:46;;;;;;;;;41.50;36.25;14.20;57.40;;;;;;4935449;29;8807;-59
2022/04/08 05:12:11;;;;;;;;;38.25;33.75;14.30;54.40;;;;;;4937007;29;8787;-62
2022/04/08 05:14:38;;;;;;;;;48.25;38.25;14.40;53.20;;;;;;4936947;29;8791;-62
2022/04/08 05:17:04;;;;;;;;;52.00;40.00;14.80;53.00;;;;;;4936973;29;8771;-61
2022/04/08 05:19:29;;;;;;;;;54.00;44.50;15.10;51.80;;;;;;4936984;29;8818;-62
2022/04/08 05:21:55;;;;;;;;;93.75;87.00;15.30;51.50;;;;;;4936751;29;8783;-62
2022/04/08 05:24:21;;;;;;;;;79.75;61.75;15.40;54.00;;;;;;4936842;29;8767;-61
2022/04/08 05:26:47;;;;;;;;;86.50;73.50;15.40;54.00;;;;;;4936997;29;8853;-61
2022/04/08 05:29:13;;;;;;;;;75.50;60.00;15.40;54.80;;;;;;4937020;29;8795;-63
2022/04/08 05:31:38;;;;;;;;;67.25;53.00;15.50;53.20;;;;;;4936711;29;8787;-62
2022/04/08 05:34:04;;;;;;;;;60.25;49.50;15.60;52.90;;;;;;4936121;29;8807;-61
2022/04/08 05:36:30;;;;;;;;;57.75;47.75;15.80;52.20;;;;;;4936576;29;8797;-62
2022/04/08 05:38:56;;;;;;;;;60.00;49.25;15.80;51.00;;;;;;4935389;29;8819;-63
2022/04/08 05:41:22;;;;;;;;;58.25;48.25;15.90;49.80;;;;;;4936043;29;8787;-62
2022/04/08 05:43:47;;;;;;;;;54.25;45.50;16.00;49.50;;;;;;4936607;29;8881;-64
2022/04/08 05:46:14;;;;;;;;;60.25;48.50;16.10;49.50;;;;;;4936649;29;8787;-62
2022/04/08 05:48:40;;;;;;;;;57.25;48.00;16.20;49.00;;;;;;4936530;29;9531;-62
2022/04/08 05:51:06;;;;;;;;;47.75;38.00;15.90;48.60;;;;;;4939827;29;8846;-62
2022/04/08 05:53:32;;;;;;;;;46.75;40.50;15.90;48.40;;;;;;4940125;29;8800;-62
2022/04/08 05:55:59;;;;;;;;;49.25;42.00;15.20;49.80;;;;;;4939676;29;8822;-62
2022/04/08 05:58:26;;;;;;;;;47.50;39.75;14.90;51.30;;;;;;4939891;29;8782;-62
2022/04/08 06:00:51;;;;;;;;;56.75;47.00;14.80;51.00;;;;;;4939674;29;8814;-62
2022/04/08 06:03:17;;;;;;;;;56.25;46.00;15.00;51.40;;;;;;4939830;29;8782;-63
2022/04/08 06:05:43;;;;;;;;;53.50;44.50;15.00;51.80;;;;;;4939887;29;8821;-63
2022/04/08 06:08:09;;;;;;;;;51.50;41.50;14.70;52.30;;;;;;4939938;29;8829;-64
2022/04/08 06:10:36;;;;;;;;;48.00;38.75;14.80;52.20;;;;;;4939486;29;8798;-62
2022/04/08 06:13:02;;;;;;;;;51.50;41.75;14.60;53.60;;;;;;4939658;29;8774;-62
2022/04/08 06:15:28;;;;;;;;;40.50;34.00;14.50;53.70;;;;;;4939960;29;9434;-64
2022/04/08 06:17:55;;;;;;;;;39.75;35.50;14.60;53.40;;;;;;4939868;29;9503;-63
2022/04/08 06:20:22;;;;;;;;;33.75;31.75;14.60;53.00;;;;;;4939505;29;8825;-62
2022/04/08 06:22:49;;;;;;;;;37.75;33.25;14.80;52.60;;;;;;4940037;29;8791;-62
2022/04/08 06:25:24;;;;;;;;;36.50;32.00;15.10;52.30;;;;;;4939186;29;8805;-63
2022/04/08 06:28:04;;;;;;;;;48.00;39.00;15.70;51.40;;;;;;4939836;29;8799;-64
2022/04/08 06:30:32;;;;;;;;;32.33;32.00;15.60;52.20;;;;;;4939490;29;8786;-63
2022/04/08 06:32:58;;;;;;;;;30.00;30.00;15.70;51.50;;;;;;4939398;29;8891;-62
2022/04/08 06:35:24;;;;;;;;;35.33;32.00;16.10;51.20;;;;;;4939371;29;8874;-62
2022/04/08 06:37:50;;;;;;;;;26.33;26.00;16.10;51.80;;;;;;4939530;29;8926;-64
2022/04/08 06:40:16;;;;;;;;;29.67;29.33;16.10;51.60;;;;;;4938628;29;9340;-64
2022/04/08 06:42:42;;;;;;;;;27.67;23.67;16.10;51.90;;;;;;4939503;29;8905;-63
2022/04/08 06:45:09;;;;;;;;;22.67;22.67;16.20;52.30;;;;;;4939176;29;8913;-64
2022/04/08 06:47:44;;;;;;;;;24.00;22.67;16.10;52.00;;;;;;4939341;29;8783;-62
2022/04/08 06:50:10;;;;;;;;;28.00;28.00;16.20;52.10;;;;;;4938951;29;8779;-62
2022/04/08 06:52:36;;;;;;;;;26.67;24.33;16.40;51.50;;;;;;4939021;29;8807;-63
2022/04/08 06:55:01;;;;;;;;;28.67;25.33;16.60;51.00;;;;;;4938516;29;8894;-63
2022/04/08 06:57:27;;;;;;;;;23.00;23.00;17.40;49.10;;;;;;4939087;29;8870;-62
2022/04/08 06:59:53;;;;;;;;;26.33;26.33;18.00;47.50;;;;;;4938738;29;8852;-64
2022/04/08 07:02:18;;;;;;;;;27.00;22.00;18.00;47.10;;;;;;4938041;29;8822;-65
2022/04/08 07:04:44;;;;;;;;;23.00;23.00;17.70;47.70;;;;;;4938639;29;8790;-63
2022/04/08 07:07:10;;;;;;;;;26.00;24.33;17.40;48.20;;;;;;4939065;29;8802;-65
2022/04/08 07:09:36;;;;;;;;;16.00;14.00;17.20;48.40;;;;;;4939006;29;8783;-65
2022/04/08 07:12:01;;;;;;;;;28.67;26.00;17.20;48.60;;;;;;4938722;29;8790;-65
2022/04/08 07:14:27;;;;;;;;;30.33;30.00;17.50;47.50;;;;;;4938865;29;8817;-65
2022/04/08 07:16:53;;;;;;;;;33.33;32.00;18.20;46.10;;;;;;4938516;29;8791;-63
2022/04/08 07:19:19;;;;;;;;;38.50;35.00;18.30;45.50;;;;;;4938786;29;8811;-65
2022/04/08 07:21:45;;;;;;;;;40.67;34.67;18.10;47.20;;;;;;4938797;29;8781;-64
2022/04/08 07:24:11;;;;;;;;;36.00;34.33;17.60;48.00;;;;;;4938742;29;9410;-65
2022/04/08 07:26:36;;;;;;;;;36.75;32.75;17.50;47.30;;;;;;4938452;29;8866;-66
2022/04/08 07:29:02;;;;;;;;;36.75;34.00;17.10;48.90;;;;;;4938496;29;8876;-63
2022/04/08 07:31:28;;;;;;;;;30.67;30.00;17.30;48.90;;;;;;4938340;29;8799;-63
2022/04/08 07:33:54;;;;;;;;;37.33;32.00;17.60;48.20;;;;;;4938256;29;8793;-64
2022/04/08 07:36:20;;;;;;;;;37.00;31.25;18.30;45.90;;;;;;4938557;29;8830;-64
2022/04/08 07:38:45;;;;;;;;;33.67;32.00;18.80;44.90;;;;;;4938527;29;8945;-65
2022/04/08 07:41:11;;;;;;;;;30.33;29.00;18.90;44.40;;;;;;4938354;29;8818;-65
2022/04/08 07:43:37;;;;;;;;;31.00;28.00;18.50;44.80;;;;;;4937963;29;8803;-65
2022/04/08 07:46:03;;;;;;;;;21.00;21.00;18.80;44.30;;;;;;4937752;29;8799;-65
2022/04/08 07:48:28;;;;;;;;;20.33;20.33;18.20;45.70;;;;;;4937975;29;9508;-65
2022/04/08 07:50:54;;;;;;;;;26.00;22.67;18.80;44.60;;;;;;4968700;28;8834;-64
2022/04/08 07:53:20;;;;;;;;;29.00;27.33;18.70;43.60;;;;;;4937921;29;8897;-65
2022/04/08 07:55:46;;;;;;;;;20.00;20.00;18.50;44.20;;;;;;4937979;29;8809;-65
2022/04/08 07:58:12;;;;;;;;;26.33;22.67;18.80;43.50;;;;;;4937793;29;8865;-64
2022/04/08 08:00:38;;;;;;;;;26.00;24.00;18.40;43.90;;;;;;4937749;29;8834;-64
2022/04/08 08:03:04;;;;;;;;;23.33;22.67;18.50;44.00;;;;;;4937929;29;8897;-64
2022/04/08 08:05:31;;;;;;;;;25.00;22.00;18.10;45.80;;;;;;4968922;28;8842;-65
2022/04/08 08:07:59;;;;;;;;;22.00;21.33;18.30;44.00;;;;;;4938053;29;9489;-64
2022/04/08 08:10:35;;;;;;;;;25.67;25.33;18.80;43.60;;;;;;4937486;29;8794;-65
2022/04/08 08:13:02;;;;;;;;;26.33;25.00;18.50;43.40;;;;;;4937291;29;8810;-64
2022/04/08 08:15:30;;;;;;;;;15.33;15.33;18.20;44.00;;;;;;4937513;29;8798;-65
2022/04/08 08:17:57;;;;;;;;;18.00;18.00;18.30;43.10;;;;;;4937581;29;8882;-64
2022/04/08 08:20:24;;;;;;;;;15.67;15.67;18.40;43.80;;;;;;4937603;29;8826;-63
2022/04/08 08:22:50;;;;;;;;;17.67;15.67;18.60;43.00;;;;;;4937485;29;8763;-64
2022/04/08 08:25:17;;;;;;;;;15.00;14.00;18.40;44.00;;;;;;4937583;29;8779;-65
2022/04/08 08:27:46;;;;;;;;;15.33;15.33;19.10;41.90;;;;;;4937538;29;8787;-64
2022/04/08 08:30:14;;;;;;;;;20.00;15.67;18.70;43.10;;;;;;4937193;29;8791;-63
2022/04/08 08:32:43;;;;;;;;;14.00;14.00;18.40;43.60;;;;;;4937553;29;8821;-64
2022/04/08 08:35:11;;;;;;;;;15.67;14.67;18.30;44.50;;;;;;4937492;29;8767;-65
2022/04/08 08:37:37;;;;;;;;;14.67;14.67;18.40;43.70;;;;;;4937321;29;8937;-65
2022/04/08 08:40:04;;;;;;;;;15.33;13.67;18.40;43.50;;;;;;4937008;29;9053;-64
2022/04/08 08:42:30;;;;;;;;;16.33;16.33;18.40;43.70;;;;;;4937142;29;8813;-65
2022/04/08 08:44:57;;;;;;;;;14.67;14.67;18.80;42.40;;;;;;4937313;29;8891;-66
2022/04/08 08:47:25;;;;;;;;;14.67;14.67;19.10;42.30;;;;;;4937259;29;8814;-65
2022/04/08 08:49:51;;;;;;;;;14.00;14.00;19.30;41.90;;;;;;4936973;29;9479;-65
2022/04/08 08:52:21;;;;;;;;;19.33;17.00;19.40;41.20;;;;;;4936832;29;8823;-63
2022/04/08 08:54:47;;;;;;;;;13.67;13.33;19.70;41.80;;;;;;4937091;29;8795;-62
2022/04/08 08:57:15;;;;;;;;;10.33;10.33;19.10;42.20;;;;;;4937178;29;8823;-62
2022/04/08 08:59:42;;;;;;;;;14.67;12.67;19.60;41.20;;;;;;4937118;29;8799;-63
2022/04/08 09:02:08;;;;;;;;;11.00;11.00;19.80;40.80;;;;;;4936848;29;8828;-64
2022/04/08 09:04:41;;;;;;;;;9.67;9.67;20.20;40.60;;;;;;4936853;29;8807;-66
2022/04/08 09:07:27;;;;;;;;;10.33;9.33;20.50;39.10;;;;;;4937017;29;8795;-66
2022/04/08 09:09:54;;;;;;;;;13.67;13.67;20.90;38.50;;;;;;4936591;28;8817;-65
2022/04/08 09:12:23;;;;;;;;;10.33;8.67;21.20;38.60;;;;;;4937080;29;9437;-66
2022/04/08 09:14:54;;;;;;;;;11.33;11.33;20.70;37.90;;;;;;4936828;29;8783;-66
2022/04/08 09:17:22;;;;;;;;;13.00;11.67;20.70;38.30;;;;;;4937098;29;8775;-65
2022/04/08 09:19:53;;;;;;;;;19.33;13.33;20.80;38.80;;;;;;4936566;29;8823;-66
2022/04/08 09:22:20;;;;;;;;;13.00;10.33;20.40;38.70;;;;;;4937015;29;8763;-66
2022/04/08 09:24:46;;;;;;;;;12.00;11.00;20.60;38.40;;;;;;4938521;29;8798;-65
2022/04/08 09:27:12;;;;;;;;;12.33;10.33;20.70;38.90;;;;;;4940823;29;8775;-66
2022/04/08 09:29:45;;;;;;;;;15.00;13.67;21.00;38.90;;;;;;4940458;29;8771;-66
2022/04/08 09:32:12;;;;;;;;;13.00;11.33;20.50;37.90;;;;;;4940428;29;8767;-66
2022/04/08 09:34:39;;;;;;;;;14.33;11.00;20.60;39.40;;;;;;4940413;29;8805;-66
2022/04/08 09:37:15;;;;;;;;;2.00;2.00;20.60;39.90;;;;;;4940450;29;8830;-66
2022/04/08 09:40:05;;;;;;;;;10.33;10.33;20.70;39.30;;;;;;4940172;29;8818;-66
2022/04/08 09:42:51;;;;;;;;;12.67;11.67;21.20;38.30;;;;;;4940330;29;8795;-65
2022/04/08 09:45:30;;;;;;;;;11.00;11.00;21.20;39.00;;;;;;4940451;28;8803;-65
2022/04/08 09:48:03;;;;;;;;;13.67;12.00;21.20;39.40;;;;;;4940278;29;8798;-66
2022/04/08 09:50:29;;;;;;;;;13.67;11.67;21.30;37.50;;;;;;4940247;29;8799;-65
2022/04/08 09:52:55;;;;;;;;;13.00;13.00;21.30;37.20;;;;;;4939887;29;8802;-65
2022/04/08 09:55:23;;;;;;;;;14.00;12.67;21.60;38.60;;;;;;4940339;29;8814;-66
2022/04/08 09:57:55;;;;;;;;;12.33;11.33;21.90;37.30;;;;;;4940296;29;8779;-65
2022/04/08 10:00:21;;;;;;;;;10.00;10.00;22.00;36.10;;;;;;4939976;29;8834;-66
2022/04/08 10:02:50;;;;;;;;;9.00;9.00;22.30;35.70;;;;;;4940239;29;8814;-66
2022/04/08 10:05:16;;;;;;;;;9.00;9.00;22.20;37.60;;;;;;4940076;29;11550;-65
2022/04/08 10:07:46;;;;;;;;;9.67;9.33;22.70;36.50;;;;;;4939834;29;12181;-66
2022/04/08 10:10:31;;;;;;;;;9.33;8.33;22.40;35.50;;;;;;4939811;29;8889;-65
2022/04/08 10:13:27;;;;;;;;;10.67;10.67;22.60;35.70;;;;;;4939954;29;11579;-66
2022/04/08 10:16:15;;;;;;;;;12.33;12.33;22.60;35.80;;;;;;4939899;29;8812;-66
2022/04/08 10:18:43;;;;;;;;;11.67;11.33;22.50;35.80;;;;;;4939987;29;8779;-66
2022/04/08 10:21:10;;;;;;;;;7.00;7.00;22.60;37.40;;;;;;4939492;29;12286;-66
2022/04/08 10:23:45;;;;;;;;;11.00;11.00;22.90;36.20;;;;;;4939748;29;11588;-65
2022/04/08 10:26:22;;;;;;;;;8.00;8.00;22.80;36.10;;;;;;4939795;29;8799;-64
2022/04/08 10:28:52;;;;;;;;;10.67;10.00;22.90;33.90;;;;;;4939255;29;11573;-67
2022/04/08 10:31:23;;;;;;;;;10.33;10.33;22.60;34.50;;;;;;4939478;29;11600;-66
2022/04/08 10:33:54;;;;;;;;;9.33;9.33;22.60;36.70;;;;;;4939393;29;11580;-66
2022/04/08 10:36:38;;;;;;;;;9.00;9.00;22.50;36.90;;;;;;4939012;29;11609;-66
2022/04/08 10:39:13;;;;;;;;;10.33;10.33;22.90;36.50;;;;;;4939394;29;11542;-64
2022/04/08 10:42:00;;;;;;;;;11.00;11.00;23.00;34.80;;;;;;4939093;29;11513;-64
2022/04/08 10:44:41;;;;;;;;;10.00;10.00;23.50;33.90;;;;;;4939048;29;11562;-61
2022/04/08 10:47:14;;;;;;;;;8.50;8.50;23.50;36.40;;;;;;4939304;29;11557;-63
2022/04/08 10:50:04;;;;;;;;;12.67;12.00;24.00;35.00;;;;;;4939243;29;11621;-65
2022/04/08 10:52:38;;;;;;;;;9.00;9.00;23.80;32.50;;;;;;4939213;29;11606;-66
2022/04/08 10:55:07;;;;;;;;;20.00;18.33;23.60;34.70;;;;;;4938899;29;11548;-67
2022/04/08 10:57:38;;;;;;;;;20.00;18.00;23.30;36.90;;;;;;4938974;29;8819;-65
2022/04/08 11:00:08;;;;;;;;;21.33;19.00;23.20;36.10;;;;;;4938884;29;8915;-66
2022/04/08 11:02:44;;;;;;;;;15.67;15.67;23.50;35.00;;;;;;4938877;29;8791;-66
2022/04/08 11:05:12;;;;;;;;;16.00;14.33;23.30;36.30;;;;;;4938749;29;9479;-66
2022/04/08 11:07:42;;;;;;;;;18.00;17.00;23.50;36.60;;;;;;4938713;29;8902;-65
2022/04/08 11:10:15;;;;;;;;;15.33;15.33;23.50;34.70;;;;;;4938951;29;9516;-66
2022/04/08 11:12:51;;;;;;;;;12.33;11.33;23.30;36.70;;;;;;4938622;29;11543;-66
2022/04/08 11:15:19;;;;;;;;;14.33;14.33;23.40;35.40;;;;;;4938549;29;11545;-66
2022/04/08 11:17:49;;;;;;;;;15.00;14.67;23.40;36.30;;;;;;4938462;29;11521;-65
2022/04/08 11:20:18;;;;;;;;;17.00;17.00;23.70;35.60;;;;;;4938292;29;11600;-66
2022/04/08 11:22:47;;;;;;;;;12.33;11.67;23.90;35.30;;;;;;4938545;29;12288;-66
2022/04/08 11:25:23;;;;;;;;;12.75;11.75;24.10;36.70;;;;;;4938566;29;11571;-65
2022/04/08 11:28:06;;;;;;;;;7.75;7.75;24.20;34.20;;;;;;4938453;29;11531;-63
2022/04/08 11:30:35;;;;;;;;;12.67;11.67;24.10;33.00;;;;;;4938543;29;11541;-64
2022/04/08 11:33:17;;;;;;;;;14.00;12.75;25.00;32.50;;;;;;4938090;29;11558;-64
2022/04/08 11:35:44;;;;;;;;;13.33;12.67;25.50;32.70;;;;;;4938221;29;11662;-63
2022/04/08 11:38:18;;;;;;;;;11.75;11.00;25.30;31.70;;;;;;4938357;29;11569;-62
2022/04/08 11:40:44;;;;;;;;;11.00;9.00;25.50;32.00;;;;;;4938162;29;11720;-64
2022/04/08 11:43:15;;;;;;;;;9.00;9.00;26.00;33.20;;;;;;4938082;29;11537;-64
2022/04/08 11:45:42;;;;;;;;;7.75;7.75;25.70;31.70;;;;;;4937903;29;11523;-65
2022/04/08 11:48:15;;;;;;;;;9.50;9.00;26.40;31.80;;;;;;4937221;29;11520;-64
2022/04/08 11:50:42;;;;;;;;;12.50;12.25;26.20;30.00;;;;;;4937695;29;11588;-64
2022/04/08 11:53:19;;;;;;;;;11.00;10.00;25.90;30.40;;;;;;4936986;29;11566;-65
2022/04/08 11:55:56;;;;;;;;;9.50;9.00;25.60;30.50;;;;;;4937217;29;11568;-65
2022/04/08 11:58:22;;;;;;;;;9.00;8.25;25.90;30.00;;;;;;4936810;29;12258;-67
2022/04/08 12:00:49;;;;;;;;;11.00;11.00;26.20;31.10;;;;;;4936986;29;11603;-65
2022/04/08 12:03:29;;;;;;;;;11.25;11.25;26.40;29.70;;;;;;4936970;29;8790;-61
2022/04/08 12:05:55;;;;;;;;;6.50;6.50;26.40;29.10;;;;;;4936858;29;11618;-63
2022/04/08 12:08:22;;;;;;;;;7.75;7.75;27.30;29.70;;;;;;4937093;29;11538;-63
2022/04/08 12:10:58;;;;;;;;;6.00;6.00;27.50;29.20;;;;;;4937054;29;11517;-62
2022/04/08 12:13:26;;;;;;;;;8.25;8.25;27.20;28.50;;;;;;4936878;29;12176;-63
2022/04/08 12:15:57;;;;;;;;;9.00;9.00;26.30;28.90;;;;;;4937004;29;11539;-63
2022/04/08 12:18:29;;;;;;;;;10.50;9.25;27.80;29.60;;;;;;4936712;29;11509;-64
2022/04/08 12:21:00;;;;;;;;;6.00;6.00;27.20;29.20;;;;;;4936353;29;11544;-63
2022/04/08 12:23:27;;;;;;;;;8.50;8.50;28.00;28.40;;;;;;4936849;29;11672;-63
2022/04/08 12:25:59;;;;;;;;;6.00;6.00;29.70;27.80;;;;;;4936746;29;11620;-64
2022/04/08 12:28:29;;;;;;;;;5.75;5.75;33.70;24.50;;;;;;4936530;29;11527;-63
2022/04/08 12:30:55;;;;;;;;;8.50;8.50;38.70;21.70;;;;;;4936864;29;11516;-61
2022/04/08 12:33:21;;;;;;;;;5.25;5.25;41.20;20.20;;;;;;4936793;29;11536;-65
2022/04/08 12:35:47;;;;;;;;;6.00;6.00;39.70;19.70;;;;;;4936788;29;11494;-65
2022/04/08 12:38:19;;;;;;;;;7.00;7.00;38.00;19.70;;;;;;4936627;29;8831;-64
2022/04/08 12:40:49;;;;;;;;;7.25;7.25;33.90;21.20;;;;;;4936551;29;11680;-63
2022/04/08 12:43:15;;;;;;;;;6.25;6.25;33.00;22.70;;;;;;4936355;29;12209;-64